createdAt,value
2018-10-02T00:00:14.486Z,0.00
2018-10-02T00:01:14.492Z,0.00
2018-10-02T00:02:14.528Z,0.00
2018-10-02T00:03:14.544Z,0.00
2018-10-02T00:04:14.563Z,0.00
2018-10-02T00:05:14.588Z,0.00
2018-10-02T00:06:14.609Z,0.00
2018-10-02T00:07:14.633Z,0.00
2018-10-02T00:08:14.662Z,0.00
2018-10-02T00:09:14.686Z,0.00
2018-10-02T00:10:14.717Z,0.00
2018-10-02T00:11:14.731Z,0.00
2018-10-02T00:12:14.773Z,0.00
2018-10-02T00:13:14.771Z,0.00
2018-10-02T00:14:14.797Z,0.00
2018-10-02T00:15:14.823Z,0.00
2018-10-02T00:16:14.864Z,0.00
2018-10-02T00:17:14.871Z,0.00
2018-10-02T00:18:14.900Z,0.00
2018-10-02T00:19:14.923Z,0.00
2018-10-02T00:20:14.944Z,0.00
2018-10-02T00:21:14.969Z,0.00
2018-10-02T00:22:14.992Z,0.00
2018-10-02T00:23:15.025Z,0.00
2018-10-02T00:24:15.068Z,0.00
2018-10-02T00:25:15.061Z,0.00
2018-10-02T00:26:15.082Z,0.00
2018-10-02T00:27:15.108Z,0.00
2018-10-02T00:28:15.130Z,0.00
2018-10-02T00:29:15.158Z,0.00
2018-10-02T00:30:15.195Z,0.00
2018-10-02T00:31:15.206Z,0.00
2018-10-02T00:32:15.394Z,0.00
2018-10-02T00:33:15.253Z,0.00
2018-10-02T00:34:15.275Z,0.00
2018-10-02T00:35:15.299Z,0.00
2018-10-02T00:36:15.325Z,0.00
2018-10-02T00:37:15.351Z,0.00
2018-10-02T00:38:15.367Z,0.00
2018-10-02T00:39:15.395Z,0.00
2018-10-02T00:40:15.416Z,0.00
2018-10-02T00:41:15.440Z,0.00
2018-10-02T00:42:15.462Z,0.00
2018-10-02T00:43:15.491Z,0.00
2018-10-02T00:44:15.517Z,0.00
2018-10-02T00:45:15.535Z,0.00
2018-10-02T00:46:15.556Z,0.00
2018-10-02T00:47:15.581Z,0.00
2018-10-02T00:48:15.605Z,0.00
2018-10-02T00:49:15.631Z,0.00
2018-10-02T00:50:15.652Z,0.00
2018-10-02T00:51:15.674Z,0.00
2018-10-02T00:52:15.692Z,0.00
2018-10-02T00:53:15.726Z,0.00
2018-10-02T00:54:15.753Z,0.00
2018-10-02T00:55:15.766Z,0.00
2018-10-02T00:56:15.794Z,0.00
2018-10-02T00:57:15.817Z,0.00
2018-10-02T00:58:15.844Z,0.00
2018-10-02T00:59:15.864Z,0.00
2018-10-02T01:00:15.893Z,0.00
2018-10-02T01:01:15.915Z,0.00
2018-10-02T01:02:15.935Z,0.00
2018-10-02T01:03:15.977Z,0.00
2018-10-02T01:04:15.985Z,0.00
2018-10-02T01:05:15.999Z,0.00
2018-10-02T01:06:16.042Z,0.00
2018-10-02T01:07:16.061Z,0.00
2018-10-02T01:08:16.106Z,0.00
2018-10-02T01:09:16.100Z,0.00
2018-10-02T01:10:16.146Z,0.00
2018-10-02T01:11:16.147Z,0.00
2018-10-02T01:12:16.180Z,0.00
2018-10-02T01:13:16.197Z,0.00
2018-10-02T01:14:16.217Z,0.00
2018-10-02T01:15:16.242Z,0.00
2018-10-02T01:16:16.264Z,0.00
2018-10-02T01:17:16.291Z,0.00
2018-10-02T01:18:16.310Z,0.00
2018-10-02T01:19:16.338Z,0.00
2018-10-02T01:20:16.353Z,0.00
2018-10-02T01:21:16.384Z,0.00
2018-10-02T01:22:16.403Z,0.00
2018-10-02T01:23:16.425Z,0.00
2018-10-02T01:24:16.453Z,0.00
2018-10-02T01:25:16.483Z,0.00
2018-10-02T01:26:16.497Z,0.00
2018-10-02T01:27:16.537Z,0.00
2018-10-02T01:28:16.543Z,0.00
2018-10-02T01:29:16.590Z,0.00
2018-10-02T01:30:16.610Z,0.00
2018-10-02T01:31:16.620Z,0.00
2018-10-02T01:32:16.640Z,0.00
2018-10-02T01:33:16.668Z,0.00
2018-10-02T01:34:16.692Z,0.00
2018-10-02T01:35:16.713Z,0.00
2018-10-02T01:36:16.738Z,0.00
2018-10-02T01:37:16.765Z,0.00
2018-10-02T01:38:16.778Z,0.00
2018-10-02T01:39:16.809Z,0.00
2018-10-02T01:40:16.834Z,0.00
2018-10-02T01:41:16.855Z,0.00
2018-10-02T01:42:16.882Z,0.00
2018-10-02T01:43:16.903Z,0.00
2018-10-02T01:44:16.927Z,0.00
2018-10-02T01:45:16.963Z,0.00
2018-10-02T01:46:16.971Z,0.00
2018-10-02T01:47:17.004Z,0.00
2018-10-02T01:48:17.020Z,0.00
2018-10-02T01:49:17.048Z,0.00
2018-10-02T01:50:17.068Z,0.00
2018-10-02T01:51:17.093Z,0.00
2018-10-02T01:52:17.128Z,0.00
2018-10-02T01:53:17.141Z,0.00
2018-10-02T01:54:17.159Z,0.00
2018-10-02T01:55:17.188Z,0.00
2018-10-02T01:56:17.210Z,0.00
2018-10-02T01:57:17.231Z,0.00
2018-10-02T01:58:17.268Z,0.00
2018-10-02T01:59:17.289Z,0.00
2018-10-02T02:00:17.303Z,0.00
2018-10-02T02:01:17.341Z,0.00
2018-10-02T02:02:17.350Z,0.00
2018-10-02T02:03:17.372Z,0.00
2018-10-02T02:04:17.400Z,0.00
2018-10-02T02:05:17.423Z,0.00
2018-10-02T02:06:17.444Z,0.00
2018-10-02T02:07:17.469Z,0.00
2018-10-02T02:08:17.492Z,0.00
2018-10-02T02:09:17.517Z,0.00
2018-10-02T02:10:17.536Z,0.00
2018-10-02T02:11:17.566Z,0.00
2018-10-02T02:12:17.580Z,0.00
2018-10-02T02:13:17.611Z,0.00
2018-10-02T02:14:17.639Z,0.00
2018-10-02T02:15:17.655Z,0.00
2018-10-02T02:16:17.680Z,0.00
2018-10-02T02:17:17.705Z,0.00
2018-10-02T02:18:17.731Z,0.00
2018-10-02T02:19:17.751Z,0.00
2018-10-02T02:20:17.775Z,0.00
2018-10-02T02:21:17.796Z,0.00
2018-10-02T02:22:17.829Z,0.00
2018-10-02T02:23:17.850Z,0.00
2018-10-02T02:24:17.869Z,0.00
2018-10-02T02:25:17.895Z,0.00
2018-10-02T02:26:17.918Z,0.00
2018-10-02T02:27:17.941Z,0.00
2018-10-02T02:28:17.963Z,0.00
2018-10-02T02:29:17.983Z,0.00
2018-10-02T02:30:18.013Z,0.00
2018-10-02T02:31:18.043Z,0.00
2018-10-02T02:32:18.060Z,0.00
2018-10-02T02:33:18.078Z,0.00
2018-10-02T02:34:18.106Z,0.00
2018-10-02T02:35:18.127Z,0.00
2018-10-02T02:36:18.155Z,0.00
2018-10-02T02:37:18.181Z,0.00
2018-10-02T02:38:18.197Z,0.00
2018-10-02T02:39:18.223Z,0.00
2018-10-02T02:40:18.247Z,0.00
2018-10-02T02:41:18.276Z,0.00
2018-10-02T02:42:18.294Z,0.00
2018-10-02T02:43:18.317Z,0.00
2018-10-02T02:44:18.335Z,0.00
2018-10-02T02:45:18.365Z,0.00
2018-10-02T02:46:18.390Z,0.00
2018-10-02T02:47:18.408Z,0.00
2018-10-02T02:48:18.436Z,0.00
2018-10-02T02:49:18.459Z,0.00
2018-10-02T02:50:18.485Z,0.00
2018-10-02T02:51:18.505Z,0.00
2018-10-02T02:52:18.531Z,0.00
2018-10-02T02:53:18.554Z,0.00
2018-10-02T02:54:18.582Z,0.00
2018-10-02T02:55:18.601Z,0.00
2018-10-02T02:56:18.627Z,0.00
2018-10-02T02:57:18.648Z,0.00
2018-10-02T02:58:18.668Z,0.00
2018-10-02T02:59:18.693Z,0.00
2018-10-02T03:00:18.713Z,0.00
2018-10-02T03:01:18.741Z,0.00
2018-10-02T03:02:18.765Z,0.00
2018-10-02T03:03:18.791Z,0.00
2018-10-02T03:04:18.811Z,0.00
2018-10-02T03:05:18.835Z,0.00
2018-10-02T03:06:18.857Z,0.00
2018-10-02T03:07:18.885Z,0.00
2018-10-02T03:08:18.905Z,0.00
2018-10-02T03:09:18.928Z,0.00
2018-10-02T03:10:18.956Z,0.00
2018-10-02T03:11:18.975Z,0.00
2018-10-02T03:12:19.002Z,0.00
2018-10-02T03:13:19.029Z,0.00
2018-10-02T03:14:19.043Z,0.00
2018-10-02T03:15:19.075Z,0.00
2018-10-02T03:16:19.097Z,0.00
2018-10-02T03:17:19.120Z,0.00
2018-10-02T03:18:19.138Z,0.00
2018-10-02T03:19:19.168Z,0.00
2018-10-02T03:20:19.195Z,0.00
2018-10-02T03:21:19.213Z,0.00
2018-10-02T03:22:19.236Z,0.00
2018-10-02T03:23:19.259Z,0.00
2018-10-02T03:24:19.284Z,0.00
2018-10-02T03:25:19.306Z,0.00
2018-10-02T03:26:19.330Z,0.00
2018-10-02T03:27:19.358Z,0.00
2018-10-02T03:28:19.393Z,0.00
2018-10-02T03:29:19.400Z,0.00
2018-10-02T03:30:19.425Z,0.00
2018-10-02T03:31:19.454Z,0.00
2018-10-02T03:32:19.475Z,0.00
2018-10-02T03:33:19.498Z,0.00
2018-10-02T03:34:19.523Z,0.00
2018-10-02T03:35:19.554Z,0.00
2018-10-02T03:36:19.567Z,0.00
2018-10-02T03:37:19.585Z,0.00
2018-10-02T03:38:19.617Z,0.00
2018-10-02T03:39:19.641Z,0.00
2018-10-02T03:40:19.666Z,0.00
2018-10-02T03:41:19.686Z,0.00
2018-10-02T03:42:19.706Z,0.00
2018-10-02T03:43:19.736Z,0.00
2018-10-02T03:44:19.754Z,0.00
2018-10-02T03:45:19.790Z,0.00
2018-10-02T03:46:19.802Z,0.00
2018-10-02T03:47:19.828Z,0.00
2018-10-02T03:48:19.852Z,0.00
2018-10-02T03:49:19.879Z,0.00
2018-10-02T03:50:19.899Z,0.00
2018-10-02T03:51:19.922Z,0.00
2018-10-02T03:52:19.946Z,0.00
2018-10-02T03:53:19.968Z,0.00
2018-10-02T03:54:19.992Z,0.00
2018-10-02T03:55:20.016Z,0.00
2018-10-02T03:56:20.043Z,0.00
2018-10-02T03:57:20.068Z,0.00
2018-10-02T03:58:20.110Z,0.00
2018-10-02T03:59:20.111Z,0.00
2018-10-02T04:00:20.132Z,0.00
2018-10-02T04:01:20.158Z,0.00
2018-10-02T04:02:20.185Z,0.00
2018-10-02T04:03:20.246Z,0.00
2018-10-02T04:04:20.231Z,0.00
2018-10-02T04:05:20.256Z,0.00
2018-10-02T04:06:20.276Z,0.00
2018-10-02T04:07:20.303Z,0.00
2018-10-02T04:08:20.324Z,0.00
2018-10-02T04:09:20.348Z,0.00
2018-10-02T04:10:20.377Z,0.00
2018-10-02T04:11:20.398Z,0.00
2018-10-02T04:12:20.420Z,0.00
2018-10-02T04:13:20.582Z,0.00
2018-10-02T04:14:20.464Z,0.00
2018-10-02T04:15:20.492Z,0.00
2018-10-02T04:16:20.517Z,0.00
2018-10-02T04:17:20.541Z,0.00
2018-10-02T04:18:20.562Z,0.00
2018-10-02T04:19:20.591Z,0.00
2018-10-02T04:20:20.607Z,0.00
2018-10-02T04:21:20.636Z,0.00
2018-10-02T04:22:20.660Z,0.00
2018-10-02T04:23:20.683Z,0.00
2018-10-02T04:24:20.707Z,0.00
2018-10-02T04:25:20.731Z,0.00
2018-10-02T04:26:20.760Z,0.00
2018-10-02T04:27:20.783Z,0.00
2018-10-02T04:28:20.827Z,0.00
2018-10-02T04:29:20.825Z,0.00
2018-10-02T04:30:20.849Z,0.00
2018-10-02T04:31:20.878Z,0.00
2018-10-02T04:32:20.895Z,0.00
2018-10-02T04:33:20.927Z,0.00
2018-10-02T04:34:20.947Z,0.00
2018-10-02T04:35:20.969Z,0.00
2018-10-02T04:36:20.992Z,0.00
2018-10-02T04:37:21.019Z,0.00
2018-10-02T04:38:21.038Z,0.00
2018-10-02T04:39:21.088Z,0.00
2018-10-02T04:40:21.090Z,0.00
2018-10-02T04:41:21.111Z,0.00
2018-10-02T04:42:21.139Z,0.00
2018-10-02T04:43:21.165Z,0.00
2018-10-02T04:44:21.183Z,0.00
2018-10-02T04:45:21.203Z,0.00
2018-10-02T04:46:21.240Z,0.00
2018-10-02T04:47:21.254Z,0.00
2018-10-02T04:48:21.282Z,0.00
2018-10-02T04:49:21.303Z,0.00
2018-10-02T04:50:21.328Z,0.00
2018-10-02T04:51:21.350Z,0.00
2018-10-02T04:52:21.379Z,0.00
2018-10-02T04:53:21.396Z,0.00
2018-10-02T04:54:21.421Z,0.00
2018-10-02T04:55:21.451Z,0.00
2018-10-02T04:56:21.518Z,0.00
2018-10-02T04:57:21.493Z,0.00
2018-10-02T04:58:21.519Z,0.00
2018-10-02T04:59:21.540Z,0.00
2018-10-02T05:00:21.568Z,0.00
2018-10-02T05:01:21.591Z,0.00
2018-10-02T05:02:21.661Z,0.00
2018-10-02T05:03:21.634Z,0.00
2018-10-02T05:04:21.659Z,0.00
2018-10-02T05:05:21.689Z,0.00
2018-10-02T05:06:21.709Z,0.00
2018-10-02T05:07:21.735Z,0.00
2018-10-02T05:08:21.786Z,0.00
2018-10-02T05:09:21.781Z,0.00
2018-10-02T05:10:21.809Z,0.00
2018-10-02T05:11:21.830Z,0.00
2018-10-02T05:12:21.848Z,0.00
2018-10-02T05:13:21.875Z,0.00
2018-10-02T05:14:21.919Z,0.00
2018-10-02T05:15:21.928Z,0.00
2018-10-02T05:16:21.949Z,0.00
2018-10-02T05:17:21.972Z,4.00
2018-10-02T05:18:21.997Z,4.00
2018-10-02T05:19:22.015Z,4.00
2018-10-02T05:20:22.038Z,4.00
2018-10-02T05:21:22.064Z,4.00
2018-10-02T05:22:22.090Z,4.00
2018-10-02T05:23:22.122Z,0.00
2018-10-02T05:24:22.138Z,0.00
2018-10-02T05:25:22.162Z,4.00
2018-10-02T05:26:22.188Z,4.00
2018-10-02T05:27:22.328Z,4.00
2018-10-02T05:28:22.236Z,8.00
2018-10-02T05:29:22.257Z,4.00
2018-10-02T05:30:22.279Z,4.00
2018-10-02T05:31:22.325Z,504.00
2018-10-02T05:32:22.328Z,580.00
2018-10-02T05:33:22.351Z,8.00
2018-10-02T05:34:22.384Z,8.00
2018-10-02T05:35:22.479Z,8.00
2018-10-02T05:36:22.426Z,8.00
2018-10-02T05:37:22.452Z,12.00
2018-10-02T05:38:22.490Z,12.00
2018-10-02T05:39:22.495Z,12.00
2018-10-02T05:40:22.521Z,12.00
2018-10-02T05:41:22.541Z,16.00
2018-10-02T05:42:22.569Z,20.00
2018-10-02T05:43:22.594Z,20.00
2018-10-02T05:44:22.620Z,24.00
2018-10-02T05:45:22.640Z,32.00
2018-10-02T05:46:22.663Z,32.00
2018-10-02T05:47:22.686Z,36.00
2018-10-02T05:48:22.710Z,40.00
2018-10-02T05:49:22.737Z,44.00
2018-10-02T05:50:22.758Z,48.00
2018-10-02T05:51:22.786Z,48.00
2018-10-02T05:52:22.811Z,48.00
2018-10-02T05:53:22.830Z,48.00
2018-10-02T05:54:22.853Z,44.00
2018-10-02T05:55:22.880Z,48.00
2018-10-02T05:56:22.905Z,52.00
2018-10-02T05:57:22.928Z,52.00
2018-10-02T05:58:23.009Z,56.00
2018-10-02T05:59:22.974Z,60.00
2018-10-02T06:00:22.998Z,68.00
2018-10-02T06:01:23.029Z,68.00
2018-10-02T06:02:23.045Z,72.00
2018-10-02T06:03:23.073Z,80.00
2018-10-02T06:04:23.097Z,84.00
2018-10-02T06:05:23.117Z,84.00
2018-10-02T06:06:23.145Z,80.00
2018-10-02T06:07:23.175Z,80.00
2018-10-02T06:08:23.193Z,84.00
2018-10-02T06:09:23.215Z,88.00
2018-10-02T06:10:23.246Z,96.00
2018-10-02T06:11:23.260Z,100.00
2018-10-02T06:12:23.290Z,108.00
2018-10-02T06:13:23.309Z,112.00
2018-10-02T06:14:23.330Z,120.00
2018-10-02T06:15:23.358Z,144.00
2018-10-02T06:16:23.384Z,168.00
2018-10-02T06:17:23.413Z,184.00
2018-10-02T06:18:23.430Z,192.00
2018-10-02T06:19:23.452Z,184.00
2018-10-02T06:20:23.486Z,184.00
2018-10-02T06:21:23.505Z,172.00
2018-10-02T06:22:23.527Z,168.00
2018-10-02T06:23:23.551Z,160.00
2018-10-02T06:24:23.580Z,152.00
2018-10-02T06:25:23.601Z,152.00
2018-10-02T06:26:23.623Z,156.00
2018-10-02T06:27:23.645Z,160.00
2018-10-02T06:28:23.671Z,168.00
2018-10-02T06:29:23.694Z,168.00
2018-10-02T06:30:23.759Z,176.00
2018-10-02T06:31:23.758Z,180.00
2018-10-02T06:32:23.764Z,180.00
2018-10-02T06:33:23.790Z,188.00
2018-10-02T06:34:23.827Z,196.00
2018-10-02T06:35:23.846Z,196.00
2018-10-02T06:36:23.863Z,192.00
2018-10-02T06:37:23.888Z,188.00
2018-10-02T06:38:24.062Z,192.00
2018-10-02T06:39:23.933Z,196.00
2018-10-02T06:40:23.967Z,200.00
2018-10-02T06:41:23.985Z,212.00
2018-10-02T06:42:24.005Z,232.00
2018-10-02T06:43:24.066Z,268.00
2018-10-02T06:44:24.079Z,316.00
2018-10-02T06:45:24.081Z,360.00
2018-10-02T06:46:24.104Z,388.00
2018-10-02T06:47:24.129Z,388.00
2018-10-02T06:48:24.148Z,368.00
2018-10-02T06:49:24.174Z,352.00
2018-10-02T06:50:24.219Z,356.00
2018-10-02T06:51:24.354Z,352.00
2018-10-02T06:52:24.454Z,360.00
2018-10-02T06:53:24.266Z,388.00
2018-10-02T06:54:24.294Z,440.00
2018-10-02T06:55:24.327Z,480.00
2018-10-02T06:56:24.348Z,544.00
2018-10-02T06:57:24.375Z,584.00
2018-10-02T06:58:24.391Z,580.00
2018-10-02T06:59:24.413Z,544.00
2018-10-02T07:00:24.458Z,524.00
2018-10-02T07:01:24.460Z,496.00
2018-10-02T07:02:24.497Z,432.00
2018-10-02T07:03:24.536Z,360.00
2018-10-02T07:04:24.531Z,304.00
2018-10-02T07:05:24.555Z,288.00
2018-10-02T07:06:24.581Z,296.00
2018-10-02T07:07:24.604Z,324.00
2018-10-02T07:08:24.644Z,352.00
2018-10-02T07:09:24.656Z,380.00
2018-10-02T07:10:24.675Z,380.00
2018-10-02T07:11:24.704Z,364.00
2018-10-02T07:12:24.722Z,356.00
2018-10-02T07:13:24.758Z,348.00
2018-10-02T07:14:24.782Z,344.00
2018-10-02T07:15:24.790Z,300.00
2018-10-02T07:16:24.812Z,268.00
2018-10-02T07:17:24.879Z,292.00
2018-10-02T07:18:24.856Z,300.00
2018-10-02T07:19:24.883Z,288.00
2018-10-02T07:20:24.942Z,272.00
2018-10-02T07:21:24.929Z,280.00
2018-10-02T07:22:24.951Z,292.00
2018-10-02T07:23:24.973Z,300.00
2018-10-02T07:24:25.004Z,304.00
2018-10-02T07:25:25.021Z,304.00
2018-10-02T07:26:25.106Z,292.00
2018-10-02T07:27:25.224Z,276.00
2018-10-02T07:28:25.155Z,268.00
2018-10-02T07:29:25.114Z,308.00
2018-10-02T07:30:25.147Z,336.00
2018-10-02T07:31:25.163Z,292.00
2018-10-02T07:32:25.183Z,272.00
2018-10-02T07:33:25.218Z,352.00
2018-10-02T07:34:25.231Z,424.00
2018-10-02T07:35:25.249Z,332.00
2018-10-02T07:36:25.307Z,296.00
2018-10-02T07:37:25.297Z,360.00
2018-10-02T07:38:25.353Z,324.00
2018-10-02T07:39:25.344Z,324.00
2018-10-02T07:40:25.375Z,428.00
2018-10-02T07:41:25.416Z,416.00
2018-10-02T07:42:25.442Z,452.00
2018-10-02T07:43:25.436Z,460.00
2018-10-02T07:44:25.504Z,524.00
2018-10-02T07:45:25.479Z,552.00
2018-10-02T07:46:25.506Z,572.00
2018-10-02T07:47:25.543Z,568.00
2018-10-02T07:48:25.595Z,700.00
2018-10-02T07:49:25.576Z,840.00
2018-10-02T07:50:25.596Z,708.00
2018-10-02T07:51:25.616Z,688.00
2018-10-02T07:52:25.638Z,704.00
2018-10-02T07:53:25.680Z,676.00
2018-10-02T07:54:25.685Z,752.00
2018-10-02T07:55:25.758Z,752.00
2018-10-02T07:56:25.757Z,708.00
2018-10-02T07:57:25.752Z,620.00
2018-10-02T07:58:25.775Z,496.00
2018-10-02T07:59:25.812Z,556.00
2018-10-02T08:00:25.820Z,496.00
2018-10-02T08:01:25.858Z,488.00
2018-10-02T08:02:25.928Z,480.00
2018-10-02T08:03:25.887Z,428.00
2018-10-02T08:04:25.910Z,512.00
2018-10-02T08:05:25.971Z,516.00
2018-10-02T08:06:25.957Z,736.00
2018-10-02T08:07:25.980Z,728.00
2018-10-02T08:08:26.062Z,608.00
2018-10-02T08:09:26.025Z,628.00
2018-10-02T08:10:26.054Z,560.00
2018-10-02T08:11:26.094Z,544.00
2018-10-02T08:12:26.259Z,508.00
2018-10-02T08:13:26.126Z,472.00
2018-10-02T08:14:26.167Z,436.00
2018-10-02T08:15:26.164Z,548.00
2018-10-02T08:16:26.192Z,560.00
2018-10-02T08:17:26.212Z,436.00
2018-10-02T08:18:26.230Z,412.00
2018-10-02T08:19:26.258Z,368.00
2018-10-02T08:20:26.329Z,316.00
2018-10-02T08:21:26.305Z,340.00
2018-10-02T08:22:26.327Z,308.00
2018-10-02T08:23:26.351Z,244.00
2018-10-02T08:24:26.369Z,252.00
2018-10-02T08:25:26.393Z,288.00
2018-10-02T08:26:26.438Z,300.00
2018-10-02T08:27:26.499Z,332.00
2018-10-02T08:28:26.461Z,292.00
2018-10-02T08:29:26.594Z,276.00
2018-10-02T08:30:26.642Z,292.00
2018-10-02T08:31:26.540Z,324.00
2018-10-02T08:32:26.617Z,368.00
2018-10-02T08:33:26.577Z,360.00
2018-10-02T08:34:26.608Z,304.00
2018-10-02T08:35:26.692Z,380.00
2018-10-02T08:36:26.692Z,384.00
2018-10-02T08:37:26.669Z,388.00
2018-10-02T08:38:26.733Z,384.00
2018-10-02T08:39:26.714Z,348.00
2018-10-02T08:40:26.785Z,352.00
2018-10-02T08:41:26.762Z,388.00
2018-10-02T08:42:26.788Z,348.00
2018-10-02T08:43:26.835Z,340.00
2018-10-02T08:44:26.903Z,340.00
2018-10-02T08:45:26.865Z,328.00
2018-10-02T08:46:26.881Z,360.00
2018-10-02T08:47:26.956Z,376.00
2018-10-02T08:48:26.924Z,332.00
2018-10-02T08:49:26.955Z,324.00
2018-10-02T08:50:27.009Z,312.00
2018-10-02T08:51:26.995Z,260.00
2018-10-02T08:52:27.018Z,296.00
2018-10-02T08:53:27.046Z,292.00
2018-10-02T08:54:27.073Z,276.00
2018-10-02T08:55:27.094Z,292.00
2018-10-02T08:56:27.113Z,352.00
2018-10-02T08:57:27.139Z,364.00
2018-10-02T08:58:27.166Z,376.00
2018-10-02T08:59:27.196Z,324.00
2018-10-02T09:00:27.219Z,332.00
2018-10-02T09:01:27.237Z,312.00
2018-10-02T09:02:27.252Z,348.00
2018-10-02T09:03:27.283Z,360.00
2018-10-02T09:04:27.316Z,316.00
2018-10-02T09:05:27.326Z,280.00
2018-10-02T09:06:27.392Z,260.00
2018-10-02T09:07:27.372Z,228.00
2018-10-02T09:08:27.398Z,192.00
2018-10-02T09:09:27.417Z,200.00
2018-10-02T09:10:27.441Z,200.00
2018-10-02T09:11:27.467Z,256.00
2018-10-02T09:12:27.527Z,336.00
2018-10-02T09:13:27.511Z,364.00
2018-10-02T09:14:27.535Z,400.00
2018-10-02T09:15:27.582Z,464.00
2018-10-02T09:16:27.666Z,464.00
2018-10-02T09:17:27.603Z,476.00
2018-10-02T09:18:27.656Z,440.00
2018-10-02T09:19:27.651Z,464.00
2018-10-02T09:20:27.698Z,440.00
2018-10-02T09:21:27.707Z,400.00
2018-10-02T09:22:27.727Z,484.00
2018-10-02T09:23:27.779Z,492.00
2018-10-02T09:24:27.799Z,532.00
2018-10-02T09:25:27.794Z,496.00
2018-10-02T09:26:27.817Z,496.00
2018-10-02T09:27:27.857Z,476.00
2018-10-02T09:28:27.910Z,440.00
2018-10-02T09:29:27.890Z,484.00
2018-10-02T09:30:28.014Z,468.00
2018-10-02T09:31:27.934Z,524.00
2018-10-02T09:32:27.961Z,572.00
2018-10-02T09:33:28.031Z,580.00
2018-10-02T09:34:28.012Z,664.00
2018-10-02T09:35:28.033Z,640.00
2018-10-02T09:36:28.091Z,552.00
2018-10-02T09:37:28.144Z,432.00
2018-10-02T09:38:28.102Z,436.00
2018-10-02T09:39:28.176Z,376.00
2018-10-02T09:40:28.150Z,356.00
2018-10-02T09:41:28.173Z,364.00
2018-10-02T09:42:28.222Z,348.00
2018-10-02T09:43:28.298Z,380.00
2018-10-02T09:44:28.245Z,396.00
2018-10-02T09:45:28.325Z,436.00
2018-10-02T09:46:28.290Z,512.00
2018-10-02T09:47:28.316Z,452.00
2018-10-02T09:48:28.361Z,440.00
2018-10-02T09:49:28.373Z,436.00
2018-10-02T09:50:28.402Z,428.00
2018-10-02T09:51:28.414Z,440.00
2018-10-02T09:52:28.435Z,400.00
2018-10-02T09:53:28.459Z,376.00
2018-10-02T09:54:28.536Z,400.00
2018-10-02T09:55:28.513Z,400.00
2018-10-02T09:56:28.552Z,416.00
2018-10-02T09:57:28.570Z,396.00
2018-10-02T09:58:28.597Z,408.00
2018-10-02T09:59:28.602Z,456.00
2018-10-02T10:00:28.640Z,440.00
2018-10-02T10:01:28.651Z,452.00
2018-10-02T10:02:28.701Z,516.00
2018-10-02T10:03:28.697Z,516.00
2018-10-02T10:04:28.722Z,480.00
2018-10-02T10:05:28.748Z,592.00
2018-10-02T10:06:28.772Z,528.00
2018-10-02T10:07:28.793Z,516.00
2018-10-02T10:08:28.818Z,612.00
2018-10-02T10:09:28.852Z,608.00
2018-10-02T10:10:28.959Z,700.00
2018-10-02T10:11:28.891Z,572.00
2018-10-02T10:12:28.914Z,540.00
2018-10-02T10:13:28.942Z,576.00
2018-10-02T10:14:28.965Z,588.00
2018-10-02T10:15:28.987Z,612.00
2018-10-02T10:16:29.078Z,664.00
2018-10-02T10:17:29.111Z,592.00
2018-10-02T10:18:29.061Z,608.00
2018-10-02T10:19:29.083Z,688.00
2018-10-02T10:20:29.106Z,624.00
2018-10-02T10:21:29.130Z,588.00
2018-10-02T10:22:29.201Z,532.00
2018-10-02T10:23:29.181Z,544.00
2018-10-02T10:24:29.206Z,504.00
2018-10-02T10:25:29.227Z,776.00
2018-10-02T10:26:29.295Z,708.00
2018-10-02T10:27:29.281Z,916.00
2018-10-02T10:28:29.366Z,748.00
2018-10-02T10:29:29.322Z,684.00
2018-10-02T10:30:29.346Z,720.00
2018-10-02T10:31:29.370Z,624.00
2018-10-02T10:32:29.410Z,680.00
2018-10-02T10:33:29.481Z,692.00
2018-10-02T10:34:29.455Z,756.00
2018-10-02T10:35:29.471Z,788.00
2018-10-02T10:36:29.491Z,792.00
2018-10-02T10:37:29.515Z,792.00
2018-10-02T10:38:29.534Z,780.00
2018-10-02T10:39:29.565Z,980.00
2018-10-02T10:40:29.601Z,948.00
2018-10-02T10:41:29.615Z,904.00
2018-10-02T10:42:29.638Z,884.00
2018-10-02T10:43:29.660Z,1052.00
2018-10-02T10:44:29.683Z,900.00
2018-10-02T10:45:29.709Z,920.00
2018-10-02T10:46:29.767Z,944.00
2018-10-02T10:47:29.801Z,936.00
2018-10-02T10:48:29.788Z,928.00
2018-10-02T10:49:29.806Z,732.00
2018-10-02T10:50:29.829Z,852.00
2018-10-02T10:51:29.858Z,1108.00
2018-10-02T10:52:29.889Z,1052.00
2018-10-02T10:53:29.905Z,988.00
2018-10-02T10:54:29.929Z,1048.00
2018-10-02T10:55:29.957Z,1172.00
2018-10-02T10:56:30.047Z,1032.00
2018-10-02T10:57:30.002Z,940.00
2018-10-02T10:58:30.041Z,980.00
2018-10-02T10:59:30.064Z,836.00
2018-10-02T11:00:30.077Z,620.00
2018-10-02T11:01:30.097Z,600.00
2018-10-02T11:02:30.122Z,548.00
2018-10-02T11:03:30.153Z,588.00
2018-10-02T11:04:30.249Z,584.00
2018-10-02T11:05:30.194Z,700.00
2018-10-02T11:06:30.217Z,668.00
2018-10-02T11:07:30.241Z,556.00
2018-10-02T11:08:30.267Z,720.00
2018-10-02T11:09:30.315Z,732.00
2018-10-02T11:10:30.322Z,860.00
2018-10-02T11:11:30.340Z,816.00
2018-10-02T11:12:30.368Z,708.00
2018-10-02T11:13:30.388Z,664.00
2018-10-02T11:14:30.414Z,664.00
2018-10-02T11:15:30.439Z,652.00
2018-10-02T11:16:30.468Z,676.00
2018-10-02T11:17:30.485Z,636.00
2018-10-02T11:18:30.510Z,984.00
2018-10-02T11:19:30.539Z,1128.00
2018-10-02T11:20:30.562Z,1200.00
2018-10-02T11:21:30.582Z,1024.00
2018-10-02T11:22:30.607Z,688.00
2018-10-02T11:23:30.630Z,572.00
2018-10-02T11:24:30.650Z,580.00
2018-10-02T11:25:30.693Z,616.00
2018-10-02T11:26:30.712Z,636.00
2018-10-02T11:27:30.724Z,628.00
2018-10-02T11:28:30.761Z,912.00
2018-10-02T11:29:30.780Z,780.00
2018-10-02T11:30:30.802Z,688.00
2018-10-02T11:31:30.839Z,800.00
2018-10-02T11:32:30.853Z,720.00
2018-10-02T11:33:30.877Z,732.00
2018-10-02T11:34:30.898Z,632.00
2018-10-02T11:35:30.990Z,584.00
2018-10-02T11:36:30.948Z,452.00
2018-10-02T11:37:30.974Z,436.00
2018-10-02T11:38:30.998Z,448.00
2018-10-02T11:39:31.020Z,448.00
2018-10-02T11:40:31.044Z,476.00
2018-10-02T11:41:31.070Z,444.00
2018-10-02T11:42:31.093Z,488.00
2018-10-02T11:43:31.172Z,460.00
2018-10-02T11:44:31.162Z,448.00
2018-10-02T11:45:31.165Z,444.00
2018-10-02T11:46:31.191Z,400.00
2018-10-02T11:47:31.215Z,456.00
2018-10-02T11:48:31.240Z,444.00
2018-10-02T11:49:31.284Z,432.00
2018-10-02T11:50:31.309Z,556.00
2018-10-02T11:51:31.312Z,568.00
2018-10-02T11:52:31.348Z,460.00
2018-10-02T11:53:31.362Z,432.00
2018-10-02T11:54:31.416Z,452.00
2018-10-02T11:55:31.459Z,424.00
2018-10-02T11:56:31.434Z,444.00
2018-10-02T11:57:31.529Z,504.00
2018-10-02T11:58:31.486Z,544.00
2018-10-02T11:59:31.506Z,584.00
2018-10-02T12:00:31.599Z,708.00
2018-10-02T12:01:31.557Z,624.00
2018-10-02T12:02:31.658Z,532.00
2018-10-02T12:03:31.672Z,496.00
2018-10-02T12:04:31.630Z,452.00
2018-10-02T12:05:31.646Z,416.00
2018-10-02T12:06:31.674Z,444.00
2018-10-02T12:07:31.710Z,452.00
2018-10-02T12:08:31.737Z,456.00
2018-10-02T12:09:31.749Z,544.00
2018-10-02T12:10:31.798Z,464.00
2018-10-02T12:11:31.859Z,404.00
2018-10-02T12:12:31.830Z,372.00
2018-10-02T12:13:32.017Z,356.00
2018-10-02T12:14:32.124Z,440.00
2018-10-02T12:15:31.913Z,364.00
2018-10-02T12:16:31.922Z,320.00
2018-10-02T12:17:31.944Z,400.00
2018-10-02T12:18:31.983Z,464.00
2018-10-02T12:19:32.079Z,448.00
2018-10-02T12:20:32.016Z,552.00
2018-10-02T12:21:32.066Z,788.00
2018-10-02T12:22:32.074Z,608.00
2018-10-02T12:23:32.128Z,460.00
2018-10-02T12:24:32.116Z,348.00
2018-10-02T12:25:32.169Z,496.00
2018-10-02T12:26:32.163Z,756.00
2018-10-02T12:27:32.190Z,804.00
2018-10-02T12:28:32.216Z,1020.00
2018-10-02T12:29:32.236Z,824.00
2018-10-02T12:30:32.258Z,728.00
2018-10-02T12:31:32.283Z,728.00
2018-10-02T12:32:32.305Z,788.00
2018-10-02T12:33:32.339Z,792.00
2018-10-02T12:34:32.354Z,704.00
2018-10-02T12:35:32.373Z,756.00
2018-10-02T12:36:32.410Z,832.00
2018-10-02T12:37:32.429Z,1204.00
2018-10-02T12:38:32.487Z,1364.00
2018-10-02T12:39:32.477Z,1560.00
2018-10-02T12:40:32.570Z,1388.00
2018-10-02T12:41:32.529Z,1412.00
2018-10-02T12:42:32.554Z,1564.00
2018-10-02T12:43:32.571Z,1436.00
2018-10-02T12:44:32.602Z,1356.00
2018-10-02T12:45:32.626Z,1348.00
2018-10-02T12:46:32.678Z,1596.00
2018-10-02T12:47:32.672Z,1840.00
2018-10-02T12:48:32.698Z,1476.00
2018-10-02T12:49:32.738Z,1152.00